sensor_id;sensor_type;location;lat;lon;timestamp;temperature;humidity
21722;DHT22;11023;48.274;7.794;2022-12-10T00:01:17;2.20;99.90
21722;DHT22;11023;48.274;7.794;2022-12-10T00:03:44;2.30;99.90
21722;DHT22;11023;48.274;7.794;2022-12-10T00:06:12;2.30;99.90
21722;DHT22;11023;48.274;7.794;2022-12-10T00:08:39;2.20;99.90
21722;DHT22;11023;48.274;7.794;2022-12-10T00:11:07;2.20;99.90
21722;DHT22;11023;48.274;7.794;2022-12-10T00:13:34;2.20;99.90
21722;DHT22;11023;48.274;7.794;2022-12-10T00:16:00;2.20;99.90
21722;DHT22;11023;48.274;7.794;2022-12-10T00:18:26;2.20;99.90
21722;DHT22;11023;48.274;7.794;2022-12-10T00:20:52;2.30;99.90
21722;DHT22;11023;48.274;7.794;2022-12-10T00:23:18;2.20;99.90
21722;DHT22;11023;48.274;7.794;2022-12-10T00:25:44;2.30;99.90
21722;DHT22;11023;48.274;7.794;2022-12-10T00:28:09;2.30;99.90
21722;DHT22;11023;48.274;7.794;2022-12-10T00:30:35;2.20;99.90
21722;DHT22;11023;48.274;7.794;2022-12-10T00:33:01;2.30;99.90
21722;DHT22;11023;48.274;7.794;2022-12-10T00:35:27;2.20;99.90
21722;DHT22;11023;48.274;7.794;2022-12-10T00:37:52;2.20;99.90
21722;DHT22;11023;48.274;7.794;2022-12-10T00:40:18;2.10;99.90
21722;DHT22;11023;48.274;7.794;2022-12-10T00:42:44;2.10;99.90
21722;DHT22;11023;48.274;7.794;2022-12-10T00:45:10;2.10;99.90
21722;DHT22;11023;48.274;7.794;2022-12-10T00:47:36;2.10;99.90
21722;DHT22;11023;48.274;7.794;2022-12-10T00:50:02;2.10;99.90
21722;DHT22;11023;48.274;7.794;2022-12-10T00:52:27;2.00;99.90
21722;DHT22;11023;48.274;7.794;2022-12-10T00:54:53;2.10;99.90
21722;DHT22;11023;48.274;7.794;2022-12-10T00:57:19;2.10;99.90
21722;DHT22;11023;48.274;7.794;2022-12-10T00:59:44;2.10;99.90
21722;DHT22;11023;48.274;7.794;2022-12-10T01:02:10;2.10;99.90
21722;DHT22;11023;48.274;7.794;2022-12-10T01:04:36;2.00;99.90
21722;DHT22;11023;48.274;7.794;2022-12-10T01:07:04;2.00;99.90
21722;DHT22;11023;48.274;7.794;2022-12-10T01:09:30;2.00;99.90
21722;DHT22;11023;48.274;7.794;2022-12-10T01:12:00;1.90;99.90
21722;DHT22;11023;48.274;7.794;2022-12-10T01:14:36;2.00;99.90
21722;DHT22;11023;48.274;7.794;2022-12-10T01:17:07;2.00;99.90
21722;DHT22;11023;48.274;7.794;2022-12-10T01:19:56;2.00;99.90
21722;DHT22;11023;48.274;7.794;2022-12-10T01:22:33;2.00;99.90
21722;DHT22;11023;48.274;7.794;2022-12-10T01:25:05;2.10;99.90
21722;DHT22;11023;48.274;7.794;2022-12-10T01:27:39;2.10;99.90
21722;DHT22;11023;48.274;7.794;2022-12-10T01:30:11;2.10;99.90
21722;DHT22;11023;48.274;7.794;2022-12-10T01:32:40;2.10;99.90
21722;DHT22;11023;48.274;7.794;2022-12-10T01:35:17;2.10;99.90
21722;DHT22;11023;48.274;7.794;2022-12-10T01:38:35;2.10;99.90
21722;DHT22;11023;48.274;7.794;2022-12-10T01:46:59;2.10;99.90
21722;DHT22;11023;48.274;7.794;2022-12-10T01:49:45;2.20;99.90
21722;DHT22;11023;48.274;7.794;2022-12-10T01:52:50;2.10;99.90
21722;DHT22;11023;48.274;7.794;2022-12-10T01:56:10;2.20;99.90
21722;DHT22;11023;48.274;7.794;2022-12-10T01:58:46;2.20;99.90
21722;DHT22;11023;48.274;7.794;2022-12-10T02:07:53;2.30;99.90
21722;DHT22;11023;48.274;7.794;2022-12-10T02:24:02;2.40;99.90
21722;DHT22;11023;48.274;7.794;2022-12-10T02:27:14;2.40;99.90
21722;DHT22;11023;48.274;7.794;2022-12-10T02:29:48;2.40;99.90
21722;DHT22;11023;48.274;7.794;2022-12-10T02:32:49;2.30;99.90
21722;DHT22;11023;48.274;7.794;2022-12-10T02:35:33;2.30;99.90
21722;DHT22;11023;48.274;7.794;2022-12-10T02:38:54;2.30;99.90
21722;DHT22;11023;48.274;7.794;2022-12-10T02:41:34;2.20;99.90
21722;DHT22;11023;48.274;7.794;2022-12-10T02:44:49;2.20;99.90
21722;DHT22;11023;48.274;7.794;2022-12-10T02:53:42;2.20;99.90
21722;DHT22;11023;48.274;7.794;2022-12-10T03:00:23;2.20;99.90
21722;DHT22;11023;48.274;7.794;2022-12-10T03:09:30;2.10;99.90
21722;DHT22;11023;48.274;7.794;2022-12-10T03:15:20;2.00;99.90
21722;DHT22;11023;48.274;7.794;2022-12-10T03:18:38;2.00;99.90
21722;DHT22;11023;48.274;7.794;2022-12-10T03:21:26;1.90;99.90
21722;DHT22;11023;48.274;7.794;2022-12-10T03:24:06;2.00;99.90
21722;DHT22;11023;48.274;7.794;2022-12-10T03:26:49;2.00;99.90
21722;DHT22;11023;48.274;7.794;2022-12-10T03:29:37;2.00;99.90
21722;DHT22;11023;48.274;7.794;2022-12-10T03:32:33;2.00;99.90
21722;DHT22;11023;48.274;7.794;2022-12-10T03:35:34;2.00;99.90
21722;DHT22;11023;48.274;7.794;2022-12-10T03:38:13;2.00;99.90
21722;DHT22;11023;48.274;7.794;2022-12-10T03:41:17;2.10;99.90
21722;DHT22;11023;48.274;7.794;2022-12-10T03:44:04;2.10;99.90
21722;DHT22;11023;48.274;7.794;2022-12-10T03:47:01;2.00;99.90
21722;DHT22;11023;48.274;7.794;2022-12-10T03:50:03;2.00;99.90
21722;DHT22;11023;48.274;7.794;2022-12-10T03:52:29;2.00;99.90
21722;DHT22;11023;48.274;7.794;2022-12-10T03:55:01;2.00;99.90
21722;DHT22;11023;48.274;7.794;2022-12-10T03:57:34;2.00;99.90
21722;DHT22;11023;48.274;7.794;2022-12-10T04:00:23;2.00;99.90
21722;DHT22;11023;48.274;7.794;2022-12-10T04:03:19;2.00;99.90
21722;DHT22;11023;48.274;7.794;2022-12-10T04:06:23;2.00;99.90
21722;DHT22;11023;48.274;7.794;2022-12-10T04:09:16;2.00;99.90
21722;DHT22;11023;48.274;7.794;2022-12-10T04:12:07;1.90;99.90
21722;DHT22;11023;48.274;7.794;2022-12-10T04:15:18;2.00;99.90
21722;DHT22;11023;48.274;7.794;2022-12-10T04:18:09;2.00;99.90
21722;DHT22;11023;48.274;7.794;2022-12-10T04:21:15;2.00;99.90
21722;DHT22;11023;48.274;7.794;2022-12-10T04:27:57;2.00;99.90
21722;DHT22;11023;48.274;7.794;2022-12-10T04:30:31;2.00;99.90
21722;DHT22;11023;48.274;7.794;2022-12-10T04:33:05;2.00;99.90
21722;DHT22;11023;48.274;7.794;2022-12-10T04:36:00;2.00;99.90
21722;DHT22;11023;48.274;7.794;2022-12-10T04:38:55;1.90;99.90
21722;DHT22;11023;48.274;7.794;2022-12-10T04:41:53;2.00;99.90
21722;DHT22;11023;48.274;7.794;2022-12-10T04:44:37;1.90;99.90
21722;DHT22;11023;48.274;7.794;2022-12-10T04:47:22;1.90;99.90
21722;DHT22;11023;48.274;7.794;2022-12-10T04:50:25;1.90;99.90
21722;DHT22;11023;48.274;7.794;2022-12-10T04:52:54;1.90;99.90
21722;DHT22;11023;48.274;7.794;2022-12-10T04:55:53;1.90;99.90
21722;DHT22;11023;48.274;7.794;2022-12-10T04:58:22;1.90;99.90
21722;DHT22;11023;48.274;7.794;2022-12-10T05:01:16;2.00;99.90
21722;DHT22;11023;48.274;7.794;2022-12-10T05:04:02;2.00;99.90
21722;DHT22;11023;48.274;7.794;2022-12-10T05:06:31;2.10;99.90
21722;DHT22;11023;48.274;7.794;2022-12-10T05:09:10;2.10;99.90
21722;DHT22;11023;48.274;7.794;2022-12-10T05:11:38;2.20;99.90
21722;DHT22;11023;48.274;7.794;2022-12-10T05:20:59;2.10;99.90
21722;DHT22;11023;48.274;7.794;2022-12-10T05:23:43;2.10;99.90
21722;DHT22;11023;48.274;7.794;2022-12-10T05:26:16;2.10;99.90
21722;DHT22;11023;48.274;7.794;2022-12-10T05:28:54;2.10;99.90
21722;DHT22;11023;48.274;7.794;2022-12-10T05:31:26;2.00;99.90
21722;DHT22;11023;48.274;7.794;2022-12-10T05:33:56;2.00;99.90
21722;DHT22;11023;48.274;7.794;2022-12-10T05:36:48;2.10;99.90
21722;DHT22;11023;48.274;7.794;2022-12-10T05:39:24;2.10;99.90
21722;DHT22;11023;48.274;7.794;2022-12-10T05:42:16;2.10;99.90
21722;DHT22;11023;48.274;7.794;2022-12-10T05:44:55;2.10;99.90
21722;DHT22;11023;48.274;7.794;2022-12-10T05:47:37;2.00;99.90
21722;DHT22;11023;48.274;7.794;2022-12-10T05:50:13;2.00;99.90
21722;DHT22;11023;48.274;7.794;2022-12-10T05:52:57;2.00;99.90
21722;DHT22;11023;48.274;7.794;2022-12-10T05:55:29;2.00;99.90
21722;DHT22;11023;48.274;7.794;2022-12-10T05:58:12;2.00;99.90
21722;DHT22;11023;48.274;7.794;2022-12-10T06:00:56;2.00;99.90
21722;DHT22;11023;48.274;7.794;2022-12-10T06:03:25;2.10;99.90
21722;DHT22;11023;48.274;7.794;2022-12-10T06:05:52;2.10;99.90
21722;DHT22;11023;48.274;7.794;2022-12-10T06:08:23;2.10;99.90
21722;DHT22;11023;48.274;7.794;2022-12-10T06:10:52;2.20;99.90
21722;DHT22;11023;48.274;7.794;2022-12-10T06:13:25;2.10;99.90
21722;DHT22;11023;48.274;7.794;2022-12-10T06:16:03;2.00;99.90
21722;DHT22;11023;48.274;7.794;2022-12-10T06:18:52;2.10;99.90
21722;DHT22;11023;48.274;7.794;2022-12-10T06:21:25;2.10;99.90
21722;DHT22;11023;48.274;7.794;2022-12-10T06:24:01;2.10;99.90
21722;DHT22;11023;48.274;7.794;2022-12-10T06:26:33;2.10;99.90
21722;DHT22;11023;48.274;7.794;2022-12-10T06:28:59;2.10;99.90
21722;DHT22;11023;48.274;7.794;2022-12-10T06:31:36;2.20;99.90
21722;DHT22;11023;48.274;7.794;2022-12-10T06:34:10;2.20;99.90
21722;DHT22;11023;48.274;7.794;2022-12-10T06:36:48;2.10;99.90
21722;DHT22;11023;48.274;7.794;2022-12-10T06:39:21;2.10;99.90
21722;DHT22;11023;48.274;7.794;2022-12-10T06:42:03;2.10;99.90
21722;DHT22;11023;48.274;7.794;2022-12-10T06:44:40;2.10;99.90
21722;DHT22;11023;48.274;7.794;2022-12-10T06:50:49;2.00;99.90
21722;DHT22;11023;48.274;7.794;2022-12-10T06:54:00;2.00;99.90
21722;DHT22;11023;48.274;7.794;2022-12-10T06:56:32;2.00;99.90
21722;DHT22;11023;48.274;7.794;2022-12-10T06:59:22;2.10;99.90
21722;DHT22;11023;48.274;7.794;2022-12-10T07:02:05;2.10;99.90
21722;DHT22;11023;48.274;7.794;2022-12-10T07:07:31;2.10;99.90
21722;DHT22;11023;48.274;7.794;2022-12-10T07:10:27;2.10;99.90
21722;DHT22;11023;48.274;7.794;2022-12-10T07:13:08;2.10;99.90
21722;DHT22;11023;48.274;7.794;2022-12-10T07:15:37;2.10;99.90
21722;DHT22;11023;48.274;7.794;2022-12-10T07:21:49;2.10;99.90
21722;DHT22;11023;48.274;7.794;2022-12-10T07:24:51;2.00;99.90
21722;DHT22;11023;48.274;7.794;2022-12-10T07:27:24;2.00;99.90
21722;DHT22;11023;48.274;7.794;2022-12-10T07:30:11;2.00;99.90
21722;DHT22;11023;48.274;7.794;2022-12-10T07:38:54;2.00;99.90
21722;DHT22;11023;48.274;7.794;2022-12-10T07:41:25;2.00;99.90
21722;DHT22;11023;48.274;7.794;2022-12-10T07:44:04;2.00;99.90
21722;DHT22;11023;48.274;7.794;2022-12-10T07:46:38;2.00;99.90
21722;DHT22;11023;48.274;7.794;2022-12-10T07:49:16;2.00;99.90
21722;DHT22;11023;48.274;7.794;2022-12-10T07:51:56;2.00;99.90
21722;DHT22;11023;48.274;7.794;2022-12-10T07:54:27;2.00;99.90
21722;DHT22;11023;48.274;7.794;2022-12-10T07:56:56;2.00;99.90
21722;DHT22;11023;48.274;7.794;2022-12-10T07:59:22;2.00;99.90
21722;DHT22;11023;48.274;7.794;2022-12-10T08:01:51;2.00;99.90
21722;DHT22;11023;48.274;7.794;2022-12-10T08:04:19;2.00;99.90
21722;DHT22;11023;48.274;7.794;2022-12-10T08:06:53;2.00;99.90
21722;DHT22;11023;48.274;7.794;2022-12-10T08:09:28;2.00;99.90
21722;DHT22;11023;48.274;7.794;2022-12-10T08:12:02;2.00;99.90
21722;DHT22;11023;48.274;7.794;2022-12-10T08:14:32;2.10;99.90
21722;DHT22;11023;48.274;7.794;2022-12-10T08:17:00;2.00;99.90
21722;DHT22;11023;48.274;7.794;2022-12-10T08:19:26;2.10;99.90
21722;DHT22;11023;48.274;7.794;2022-12-10T08:22:04;2.10;99.90
21722;DHT22;11023;48.274;7.794;2022-12-10T08:24:35;2.00;99.90
21722;DHT22;11023;48.274;7.794;2022-12-10T08:27:07;2.00;99.90
21722;DHT22;11023;48.274;7.794;2022-12-10T08:29:36;2.00;99.90
21722;DHT22;11023;48.274;7.794;2022-12-10T08:32:13;2.00;99.90
21722;DHT22;11023;48.274;7.794;2022-12-10T08:37:33;2.00;99.90
21722;DHT22;11023;48.274;7.794;2022-12-10T08:40:05;2.00;99.90
21722;DHT22;11023;48.274;7.794;2022-12-10T08:42:34;2.00;99.90
21722;DHT22;11023;48.274;7.794;2022-12-10T08:45:03;2.00;99.90
21722;DHT22;11023;48.274;7.794;2022-12-10T08:47:41;1.90;99.90
21722;DHT22;11023;48.274;7.794;2022-12-10T08:50:10;1.90;99.90
21722;DHT22;11023;48.274;7.794;2022-12-10T08:52:56;2.00;99.90
21722;DHT22;11023;48.274;7.794;2022-12-10T08:55:23;2.00;99.90
21722;DHT22;11023;48.274;7.794;2022-12-10T08:58:00;2.00;99.90
21722;DHT22;11023;48.274;7.794;2022-12-10T09:00:30;2.00;99.90
21722;DHT22;11023;48.274;7.794;2022-12-10T09:03:03;1.90;99.90
21722;DHT22;11023;48.274;7.794;2022-12-10T09:08:21;1.90;99.90
21722;DHT22;11023;48.274;7.794;2022-12-10T09:10:50;1.90;99.90
21722;DHT22;11023;48.274;7.794;2022-12-10T09:13:19;1.90;99.90
21722;DHT22;11023;48.274;7.794;2022-12-10T09:15:54;1.80;99.90
21722;DHT22;11023;48.274;7.794;2022-12-10T09:18:22;1.90;99.90
21722;DHT22;11023;48.274;7.794;2022-12-10T09:20:49;1.80;99.90
21722;DHT22;11023;48.274;7.794;2022-12-10T09:23:14;1.90;99.90
21722;DHT22;11023;48.274;7.794;2022-12-10T09:25:40;1.80;99.90
21722;DHT22;11023;48.274;7.794;2022-12-10T09:28:06;1.80;99.90
21722;DHT22;11023;48.274;7.794;2022-12-10T09:30:32;1.80;99.90
21722;DHT22;11023;48.274;7.794;2022-12-10T09:33:03;1.80;99.90
21722;DHT22;11023;48.274;7.794;2022-12-10T09:35:33;1.80;99.90
21722;DHT22;11023;48.274;7.794;2022-12-10T09:37:59;1.80;99.90
21722;DHT22;11023;48.274;7.794;2022-12-10T09:41:01;1.90;99.90
21722;DHT22;11023;48.274;7.794;2022-12-10T09:46:23;1.80;99.90
21722;DHT22;11023;48.274;7.794;2022-12-10T09:51:33;1.80;99.90
21722;DHT22;11023;48.274;7.794;2022-12-10T09:54:25;1.80;99.90
21722;DHT22;11023;48.274;7.794;2022-12-10T09:56:53;1.70;99.90
21722;DHT22;11023;48.274;7.794;2022-12-10T10:02:45;1.70;99.90
21722;DHT22;11023;48.274;7.794;2022-12-10T10:07:48;1.70;99.90
21722;DHT22;11023;48.274;7.794;2022-12-10T10:10:32;1.70;99.90
21722;DHT22;11023;48.274;7.794;2022-12-10T10:13:13;1.80;99.90
21722;DHT22;11023;48.274;7.794;2022-12-10T10:15:46;1.80;99.90
21722;DHT22;11023;48.274;7.794;2022-12-10T10:18:36;1.80;99.90
21722;DHT22;11023;48.274;7.794;2022-12-10T10:21:22;1.80;99.90
21722;DHT22;11023;48.274;7.794;2022-12-10T10:24:17;1.80;99.90
21722;DHT22;11023;48.274;7.794;2022-12-10T10:26:57;1.80;99.90
21722;DHT22;11023;48.274;7.794;2022-12-10T10:29:51;1.80;99.90
21722;DHT22;11023;48.274;7.794;2022-12-10T10:32:54;1.80;99.90
21722;DHT22;11023;48.274;7.794;2022-12-10T10:35:41;1.80;99.90
21722;DHT22;11023;48.274;7.794;2022-12-10T10:38:23;1.90;99.90
21722;DHT22;11023;48.274;7.794;2022-12-10T10:41:00;1.80;99.90
21722;DHT22;11023;48.274;7.794;2022-12-10T10:43:47;1.80;99.90
21722;DHT22;11023;48.274;7.794;2022-12-10T10:46:35;1.80;99.90
21722;DHT22;11023;48.274;7.794;2022-12-10T10:49:31;1.80;99.90
21722;DHT22;11023;48.274;7.794;2022-12-10T10:52:12;1.70;99.90
21722;DHT22;11023;48.274;7.794;2022-12-10T10:54:48;1.70;99.90
21722;DHT22;11023;48.274;7.794;2022-12-10T11:00:24;1.70;99.90
21722;DHT22;11023;48.274;7.794;2022-12-10T11:02:54;1.70;99.90
21722;DHT22;11023;48.274;7.794;2022-12-10T11:05:33;1.70;99.90
21722;DHT22;11023;48.274;7.794;2022-12-10T11:08:13;1.70;99.90
21722;DHT22;11023;48.274;7.794;2022-12-10T11:11:19;1.70;99.90
21722;DHT22;11023;48.274;7.794;2022-12-10T11:13:47;1.60;99.90
21722;DHT22;11023;48.274;7.794;2022-12-10T11:16:20;1.70;99.90
21722;DHT22;11023;48.274;7.794;2022-12-10T11:19:16;1.70;99.90
21722;DHT22;11023;48.274;7.794;2022-12-10T11:21:53;1.70;99.90
21722;DHT22;11023;48.274;7.794;2022-12-10T11:24:21;1.70;99.90
21722;DHT22;11023;48.274;7.794;2022-12-10T11:27:03;1.70;99.90
21722;DHT22;11023;48.274;7.794;2022-12-10T11:30:04;1.60;99.90
21722;DHT22;11023;48.274;7.794;2022-12-10T11:38:43;1.70;99.90
21722;DHT22;11023;48.274;7.794;2022-12-10T11:41:34;1.70;99.90
21722;DHT22;11023;48.274;7.794;2022-12-10T11:46:58;1.60;99.90
21722;DHT22;11023;48.274;7.794;2022-12-10T11:58:43;1.60;99.90
21722;DHT22;11023;48.274;7.794;2022-12-10T12:15:21;1.70;99.90
21722;DHT22;11023;48.274;7.794;2022-12-10T12:18:01;1.70;99.90
21722;DHT22;11023;48.274;7.794;2022-12-10T12:20:44;1.70;99.90
21722;DHT22;11023;48.274;7.794;2022-12-10T12:23:33;1.60;99.90
21722;DHT22;11023;48.274;7.794;2022-12-10T12:35:11;1.70;99.90
21722;DHT22;11023;48.274;7.794;2022-12-10T12:38:00;1.60;99.90
21722;DHT22;11023;48.274;7.794;2022-12-10T12:40:34;1.60;99.90
21722;DHT22;11023;48.274;7.794;2022-12-10T12:43:21;1.60;99.90
21722;DHT22;11023;48.274;7.794;2022-12-10T12:45:56;1.60;99.90
21722;DHT22;11023;48.274;7.794;2022-12-10T12:51:34;1.60;99.90
21722;DHT22;11023;48.274;7.794;2022-12-10T12:54:17;1.60;99.90
21722;DHT22;11023;48.274;7.794;2022-12-10T12:57:13;1.50;99.90
21722;DHT22;11023;48.274;7.794;2022-12-10T13:00:26;1.60;99.90
21722;DHT22;11023;48.274;7.794;2022-12-10T13:03:19;1.60;99.90
21722;DHT22;11023;48.274;7.794;2022-12-10T13:05:50;1.60;99.90
21722;DHT22;11023;48.274;7.794;2022-12-10T13:11:00;1.60;99.90
21722;DHT22;11023;48.274;7.794;2022-12-10T13:19:27;1.60;99.90
21722;DHT22;11023;48.274;7.794;2022-12-10T13:22:12;1.70;99.90
21722;DHT22;11023;48.274;7.794;2022-12-10T13:31:19;1.50;99.90
21722;DHT22;11023;48.274;7.794;2022-12-10T13:45:23;1.50;99.90
21722;DHT22;11023;48.274;7.794;2022-12-10T13:51:10;1.50;99.90
21722;DHT22;11023;48.274;7.794;2022-12-10T13:53:50;1.60;99.90
21722;DHT22;11023;48.274;7.794;2022-12-10T14:05:46;1.50;99.90
21722;DHT22;11023;48.274;7.794;2022-12-10T14:08:52;1.60;99.90
21722;DHT22;11023;48.274;7.794;2022-12-10T14:14:52;1.60;99.90
21722;DHT22;11023;48.274;7.794;2022-12-10T14:17:23;1.60;99.90
21722;DHT22;11023;48.274;7.794;2022-12-10T14:19:56;1.50;99.90
21722;DHT22;11023;48.274;7.794;2022-12-10T14:22:39;1.60;99.90
21722;DHT22;11023;48.274;7.794;2022-12-10T14:25:21;1.50;99.90
21722;DHT22;11023;48.274;7.794;2022-12-10T14:27:54;1.60;99.90
21722;DHT22;11023;48.274;7.794;2022-12-10T14:30:28;1.60;99.90
21722;DHT22;11023;48.274;7.794;2022-12-10T14:32:59;1.60;99.90
21722;DHT22;11023;48.274;7.794;2022-12-10T14:35:31;1.50;99.90
21722;DHT22;11023;48.274;7.794;2022-12-10T14:38:02;1.50;99.90
21722;DHT22;11023;48.274;7.794;2022-12-10T14:40:41;1.50;99.90
21722;DHT22;11023;48.274;7.794;2022-12-10T14:43:37;1.50;99.90
21722;DHT22;11023;48.274;7.794;2022-12-10T14:49:01;1.50;99.90
21722;DHT22;11023;48.274;7.794;2022-12-10T14:51:32;1.50;99.90
21722;DHT22;11023;48.274;7.794;2022-12-10T14:53:58;1.50;99.90
21722;DHT22;11023;48.274;7.794;2022-12-10T14:56:37;1.50;99.90
21722;DHT22;11023;48.274;7.794;2022-12-10T14:59:21;1.50;99.90
21722;DHT22;11023;48.274;7.794;2022-12-10T15:01:57;1.50;99.90
21722;DHT22;11023;48.274;7.794;2022-12-10T15:04:55;1.50;99.90
21722;DHT22;11023;48.274;7.794;2022-12-10T15:07:25;1.60;99.90
21722;DHT22;11023;48.274;7.794;2022-12-10T15:10:17;1.60;99.90
21722;DHT22;11023;48.274;7.794;2022-12-10T15:12:55;1.60;99.90
21722;DHT22;11023;48.274;7.794;2022-12-10T15:15:40;1.60;99.90
21722;DHT22;11023;48.274;7.794;2022-12-10T15:18:10;1.50;99.90
21722;DHT22;11023;48.274;7.794;2022-12-10T15:20:46;1.50;99.90
21722;DHT22;11023;48.274;7.794;2022-12-10T15:26:05;1.60;99.90
21722;DHT22;11023;48.274;7.794;2022-12-10T15:28:38;1.60;99.90
21722;DHT22;11023;48.274;7.794;2022-12-10T15:34:11;1.60;99.90
21722;DHT22;11023;48.274;7.794;2022-12-10T15:36:51;1.60;99.90
21722;DHT22;11023;48.274;7.794;2022-12-10T15:39:25;1.50;99.90
21722;DHT22;11023;48.274;7.794;2022-12-10T15:41:56;1.50;99.90
21722;DHT22;11023;48.274;7.794;2022-12-10T15:44:38;1.50;99.90
21722;DHT22;11023;48.274;7.794;2022-12-10T15:47:22;1.50;99.90
21722;DHT22;11023;48.274;7.794;2022-12-10T15:52:46;1.60;99.90
21722;DHT22;11023;48.274;7.794;2022-12-10T15:55:22;1.60;99.90
21722;DHT22;11023;48.274;7.794;2022-12-10T15:57:58;1.60;99.90
21722;DHT22;11023;48.274;7.794;2022-12-10T16:00:35;1.60;99.90
21722;DHT22;11023;48.274;7.794;2022-12-10T16:03:18;1.50;99.90
21722;DHT22;11023;48.274;7.794;2022-12-10T16:05:59;1.60;99.90
21722;DHT22;11023;48.274;7.794;2022-12-10T16:08:27;1.50;99.90
21722;DHT22;11023;48.274;7.794;2022-12-10T16:10:56;1.50;99.90
21722;DHT22;11023;48.274;7.794;2022-12-10T16:13:51;1.60;99.90
21722;DHT22;11023;48.274;7.794;2022-12-10T16:16:18;1.60;99.90
21722;DHT22;11023;48.274;7.794;2022-12-10T16:18:56;1.60;99.90
21722;DHT22;11023;48.274;7.794;2022-12-10T16:21:25;1.70;99.90
21722;DHT22;11023;48.274;7.794;2022-12-10T16:23:59;1.70;99.90
21722;DHT22;11023;48.274;7.794;2022-12-10T16:29:11;1.70;99.90
21722;DHT22;11023;48.274;7.794;2022-12-10T16:31:47;1.70;99.90
21722;DHT22;11023;48.274;7.794;2022-12-10T16:34:47;1.70;99.90
21722;DHT22;11023;48.274;7.794;2022-12-10T16:37:32;1.70;99.90
21722;DHT22;11023;48.274;7.794;2022-12-10T16:40:09;1.80;99.90
21722;DHT22;11023;48.274;7.794;2022-12-10T16:43:02;1.70;99.90
21722;DHT22;11023;48.274;7.794;2022-12-10T16:45:53;1.70;99.90
21722;DHT22;11023;48.274;7.794;2022-12-10T16:48:33;1.80;99.90
21722;DHT22;11023;48.274;7.794;2022-12-10T16:51:08;1.80;99.90
21722;DHT22;11023;48.274;7.794;2022-12-10T16:53:40;1.80;99.90
21722;DHT22;11023;48.274;7.794;2022-12-10T16:56:22;1.80;99.90
21722;DHT22;11023;48.274;7.794;2022-12-10T16:59:11;1.70;99.90
21722;DHT22;11023;48.274;7.794;2022-12-10T17:01:44;1.70;99.90
21722;DHT22;11023;48.274;7.794;2022-12-10T17:04:13;1.70;99.90
21722;DHT22;11023;48.274;7.794;2022-12-10T17:06:43;1.70;99.90
21722;DHT22;11023;48.274;7.794;2022-12-10T17:09:31;1.80;99.90
21722;DHT22;11023;48.274;7.794;2022-12-10T17:11:57;1.80;99.90
21722;DHT22;11023;48.274;7.794;2022-12-10T17:14:48;1.80;99.90
21722;DHT22;11023;48.274;7.794;2022-12-10T17:17:21;1.80;99.90
21722;DHT22;11023;48.274;7.794;2022-12-10T17:19:55;1.90;99.90
21722;DHT22;11023;48.274;7.794;2022-12-10T17:22:29;1.80;99.90
21722;DHT22;11023;48.274;7.794;2022-12-10T17:25:03;1.70;99.90
21722;DHT22;11023;48.274;7.794;2022-12-10T17:30:15;1.70;99.90
21722;DHT22;11023;48.274;7.794;2022-12-10T17:32:49;1.80;99.90
21722;DHT22;11023;48.274;7.794;2022-12-10T17:35:23;1.80;99.90
21722;DHT22;11023;48.274;7.794;2022-12-10T17:38:01;1.80;99.90
21722;DHT22;11023;48.274;7.794;2022-12-10T17:40:33;1.90;99.90
21722;DHT22;11023;48.274;7.794;2022-12-10T17:46:18;1.90;99.90
21722;DHT22;11023;48.274;7.794;2022-12-10T17:49:00;1.90;99.90
21722;DHT22;11023;48.274;7.794;2022-12-10T17:52:06;1.90;99.90
21722;DHT22;11023;48.274;7.794;2022-12-10T17:54:52;1.90;99.90
21722;DHT22;11023;48.274;7.794;2022-12-10T17:57:45;1.90;99.90
21722;DHT22;11023;48.274;7.794;2022-12-10T18:00:21;1.80;99.90
21722;DHT22;11023;48.274;7.794;2022-12-10T18:03:05;1.80;99.90
21722;DHT22;11023;48.274;7.794;2022-12-10T18:05:46;1.80;99.90
21722;DHT22;11023;48.274;7.794;2022-12-10T18:10:55;1.90;99.90
21722;DHT22;11023;48.274;7.794;2022-12-10T18:13:22;1.90;99.90
21722;DHT22;11023;48.274;7.794;2022-12-10T18:15:49;1.80;99.90
21722;DHT22;11023;48.274;7.794;2022-12-10T18:18:15;1.80;99.90
21722;DHT22;11023;48.274;7.794;2022-12-10T18:20:40;1.80;99.90
21722;DHT22;11023;48.274;7.794;2022-12-10T18:23:09;1.80;99.90
21722;DHT22;11023;48.274;7.794;2022-12-10T18:25:36;1.80;99.90
21722;DHT22;11023;48.274;7.794;2022-12-10T18:30:48;1.90;99.90
21722;DHT22;11023;48.274;7.794;2022-12-10T18:33:15;1.90;99.90
21722;DHT22;11023;48.274;7.794;2022-12-10T18:35:43;1.90;99.90
21722;DHT22;11023;48.274;7.794;2022-12-10T18:38:16;1.80;99.90
21722;DHT22;11023;48.274;7.794;2022-12-10T18:40:45;1.90;99.90
21722;DHT22;11023;48.274;7.794;2022-12-10T18:43:10;1.80;99.90
21722;DHT22;11023;48.274;7.794;2022-12-10T18:45:36;1.80;99.90
21722;DHT22;11023;48.274;7.794;2022-12-10T18:48:02;1.80;99.90
21722;DHT22;11023;48.274;7.794;2022-12-10T18:50:29;1.80;99.90
21722;DHT22;11023;48.274;7.794;2022-12-10T18:52:55;1.80;99.90
21722;DHT22;11023;48.274;7.794;2022-12-10T18:55:23;1.70;99.90
21722;DHT22;11023;48.274;7.794;2022-12-10T18:57:49;1.70;99.90
21722;DHT22;11023;48.274;7.794;2022-12-10T19:00:19;1.70;99.90
21722;DHT22;11023;48.274;7.794;2022-12-10T19:02:46;1.70;99.90
21722;DHT22;11023;48.274;7.794;2022-12-10T19:05:12;1.60;99.90
21722;DHT22;11023;48.274;7.794;2022-12-10T19:07:38;1.60;99.90
21722;DHT22;11023;48.274;7.794;2022-12-10T19:10:15;1.60;99.90
21722;DHT22;11023;48.274;7.794;2022-12-10T19:12:42;1.60;99.90
21722;DHT22;11023;48.274;7.794;2022-12-10T19:15:08;1.60;99.90
21722;DHT22;11023;48.274;7.794;2022-12-10T19:17:34;1.60;99.90
21722;DHT22;11023;48.274;7.794;2022-12-10T19:20:00;1.70;99.90
21722;DHT22;11023;48.274;7.794;2022-12-10T19:22:25;1.70;99.90
21722;DHT22;11023;48.274;7.794;2022-12-10T19:24:51;1.70;99.90
21722;DHT22;11023;48.274;7.794;2022-12-10T19:27:17;1.70;99.90
21722;DHT22;11023;48.274;7.794;2022-12-10T19:29:43;1.70;99.90
21722;DHT22;11023;48.274;7.794;2022-12-10T19:32:08;1.70;99.90
21722;DHT22;11023;48.274;7.794;2022-12-10T19:34:34;1.70;99.90
21722;DHT22;11023;48.274;7.794;2022-12-10T19:37:00;1.70;99.90
21722;DHT22;11023;48.274;7.794;2022-12-10T19:39:27;1.80;99.90
21722;DHT22;11023;48.274;7.794;2022-12-10T19:41:55;1.70;99.90
21722;DHT22;11023;48.274;7.794;2022-12-10T19:44:20;1.70;99.90
21722;DHT22;11023;48.274;7.794;2022-12-10T19:46:46;1.70;99.90
21722;DHT22;11023;48.274;7.794;2022-12-10T19:49:14;1.70;99.90
21722;DHT22;11023;48.274;7.794;2022-12-10T19:51:41;1.70;99.90
21722;DHT22;11023;48.274;7.794;2022-12-10T19:54:07;1.60;99.90
21722;DHT22;11023;48.274;7.794;2022-12-10T19:56:33;1.70;99.90
21722;DHT22;11023;48.274;7.794;2022-12-10T19:59:04;1.60;99.90
21722;DHT22;11023;48.274;7.794;2022-12-10T20:01:30;1.60;99.90
21722;DHT22;11023;48.274;7.794;2022-12-10T20:03:57;1.60;99.90
21722;DHT22;11023;48.274;7.794;2022-12-10T20:06:26;1.60;99.90
21722;DHT22;11023;48.274;7.794;2022-12-10T20:09:04;1.60;99.90
21722;DHT22;11023;48.274;7.794;2022-12-10T20:11:30;1.50;99.90
21722;DHT22;11023;48.274;7.794;2022-12-10T20:13:56;1.50;99.90